createdAt,value
2019-04-27T00:01:33.998Z,4.15
2019-04-27T00:04:05.694Z,3.77
2019-04-27T00:06:43.077Z,2.72
2019-04-27T00:09:33.977Z,1.80
2019-04-27T00:12:16.506Z,3.15
2019-04-27T00:14:48.332Z,2.30
2019-04-27T00:17:44.991Z,2.40
2019-04-27T00:20:13.833Z,1.42
2019-04-27T00:22:46.953Z,2.30
2019-04-27T00:25:16.860Z,4.45
2019-04-27T00:27:46.787Z,1.32
2019-04-27T00:30:17.922Z,1.72
2019-04-27T00:32:48.049Z,3.27
2019-04-27T00:35:19.570Z,2.42
2019-04-27T00:37:57.175Z,2.75
2019-04-27T00:40:28.685Z,0.93
2019-04-27T00:42:58.653Z,1.80
2019-04-27T00:45:28.584Z,3.08
2019-04-27T00:47:59.833Z,1.27
2019-04-27T00:50:30.377Z,1.93
2019-04-27T00:53:00.370Z,3.58
2019-04-27T00:55:30.381Z,6.78
2019-04-27T00:58:03.949Z,3.72
2019-04-27T01:00:50.210Z,2.70
2019-04-27T01:03:39.565Z,3.67
2019-04-27T01:06:09.566Z,1.90
2019-04-27T01:08:39.514Z,2.95
2019-04-27T01:11:09.428Z,4.97
2019-04-27T01:13:39.334Z,1.62
2019-04-27T01:16:10.500Z,3.33
2019-04-27T01:18:41.166Z,2.35
2019-04-27T01:21:11.136Z,2.12
2019-04-27T01:23:40.983Z,2.70
2019-04-27T01:26:21.130Z,1.35
2019-04-27T01:28:59.224Z,3.45
2019-04-27T01:31:30.546Z,2.50
2019-04-27T01:34:00.415Z,1.22
2019-04-27T01:36:30.213Z,4.30
2019-04-27T01:39:00.018Z,1.52
2019-04-27T01:41:29.912Z,3.87
2019-04-27T01:43:59.796Z,2.45
2019-04-27T01:46:29.938Z,0.95
2019-04-27T01:48:59.805Z,2.85
2019-04-27T01:51:29.618Z,1.70
2019-04-27T01:53:59.496Z,2.00
2019-04-27T01:56:29.701Z,2.22
2019-04-27T01:58:59.659Z,3.35
2019-04-27T02:01:34.313Z,1.82
2019-04-27T02:04:11.776Z,3.10
2019-04-27T02:06:41.617Z,2.30
2019-04-27T02:09:12.765Z,1.82
2019-04-27T02:11:43.194Z,1.90
2019-04-27T02:14:13.551Z,3.37
2019-04-27T02:16:43.431Z,1.10
2019-04-27T02:19:13.365Z,3.00
2019-04-27T02:21:43.241Z,3.50
2019-04-27T02:24:13.042Z,3.05
2019-04-27T02:26:42.985Z,2.40
2019-04-27T02:29:24.482Z,1.05
2019-04-27T02:31:56.037Z,4.45
2019-04-27T02:34:30.261Z,3.42
2019-04-27T02:36:59.471Z,4.15
2019-04-27T02:39:30.814Z,1.45
2019-04-27T02:42:00.683Z,3.12
2019-04-27T02:44:32.189Z,1.80
2019-04-27T02:47:01.930Z,1.87
2019-04-27T02:49:31.792Z,1.00
2019-04-27T02:52:19.983Z,1.40
2019-04-27T02:54:50.577Z,2.20
2019-04-27T02:57:20.648Z,4.78
2019-04-27T02:59:51.610Z,2.45
2019-04-27T03:02:25.723Z,1.10
2019-04-27T03:04:55.522Z,2.42
2019-04-27T03:07:25.334Z,1.62
2019-04-27T03:09:55.194Z,2.22
2019-04-27T03:12:26.606Z,2.83
2019-04-27T03:15:12.910Z,2.37
2019-04-27T03:17:44.440Z,1.02
2019-04-27T03:20:20.202Z,2.20
2019-04-27T03:22:54.616Z,1.20
2019-04-27T03:25:26.141Z,2.42
2019-04-27T03:28:00.267Z,1.22
2019-04-27T03:30:31.828Z,1.75
2019-04-27T03:33:03.163Z,3.90
2019-04-27T03:35:36.471Z,6.25
2019-04-27T03:38:03.966Z,3.50
2019-04-27T03:40:33.831Z,1.32
2019-04-27T03:43:11.723Z,3.20
2019-04-27T03:45:41.790Z,2.67
2019-04-27T03:48:11.662Z,0.85
2019-04-27T03:50:43.173Z,2.17
2019-04-27T03:53:14.670Z,3.55
2019-04-27T03:55:50.129Z,2.25
2019-04-27T04:01:31.073Z,1.70
2019-04-27T04:04:00.951Z,0.80
2019-04-27T04:06:30.816Z,1.30
2019-04-27T04:09:00.721Z,1.65
2019-04-27T04:11:36.459Z,0.98
2019-04-27T04:14:16.799Z,3.22
2019-04-27T04:16:50.937Z,2.15
2019-04-27T04:19:20.781Z,3.25
2019-04-27T04:21:50.670Z,1.47
2019-04-27T04:24:20.887Z,2.02
2019-04-27T04:26:50.776Z,2.58
2019-04-27T04:29:20.692Z,1.67
2019-04-27T04:31:50.919Z,3.83
2019-04-27T04:34:20.845Z,1.50
2019-04-27T04:36:50.625Z,3.50
2019-04-27T04:39:20.587Z,0.80
2019-04-27T04:41:54.770Z,1.82
2019-04-27T04:44:26.207Z,2.15
2019-04-27T04:47:00.080Z,1.65
2019-04-27T04:49:29.704Z,2.55
2019-04-27T04:51:59.723Z,1.90
2019-04-27T04:54:30.168Z,3.70
2019-04-27T04:57:00.094Z,1.10
2019-04-27T04:59:29.894Z,1.90
2019-04-27T05:02:02.146Z,2.67
2019-04-27T05:04:31.721Z,1.30
2019-04-27T05:07:01.809Z,1.27
2019-04-27T05:09:34.111Z,1.07
2019-04-27T05:12:03.968Z,0.85
2019-04-27T05:14:33.902Z,0.68
2019-04-27T05:17:03.709Z,1.55
2019-04-27T05:19:33.620Z,1.10
2019-04-27T05:22:03.575Z,1.00
2019-04-27T05:24:33.393Z,1.22
2019-04-27T05:27:03.303Z,2.52
2019-04-27T05:29:33.097Z,4.90
2019-04-27T05:32:03.956Z,0.78
2019-04-27T05:34:35.456Z,3.08
2019-04-27T05:37:06.751Z,1.05
2019-04-27T05:39:38.731Z,1.27
2019-04-27T05:42:12.525Z,0.95
2019-04-27T05:44:56.431Z,3.42
2019-04-27T05:47:29.257Z,2.25
2019-04-27T05:50:01.802Z,2.02
2019-04-27T05:52:31.810Z,2.22
2019-04-27T05:55:01.755Z,3.02
2019-04-27T05:57:31.748Z,1.85
2019-04-27T06:00:02.495Z,2.00
2019-04-27T06:02:33.136Z,0.90
2019-04-27T06:05:03.273Z,2.37
2019-04-27T06:07:33.172Z,1.00
2019-04-27T06:10:03.001Z,2.83
2019-04-27T06:12:32.966Z,6.72
2019-04-27T06:15:02.838Z,14.85
2019-04-27T06:17:32.726Z,11.45
2019-04-27T06:20:02.571Z,5.67
2019-04-27T06:22:32.429Z,9.25
2019-04-27T06:25:02.375Z,8.08
2019-04-27T06:27:32.284Z,11.73
2019-04-27T06:30:04.809Z,7.35
2019-04-27T06:35:05.826Z,7.08
2019-04-27T06:37:35.780Z,10.60
2019-04-27T06:40:09.753Z,6.70
2019-04-27T06:42:40.013Z,9.35
2019-04-27T06:45:10.137Z,7.60
2019-04-27T06:47:41.428Z,9.10
2019-04-27T06:50:12.372Z,9.13
2019-04-27T06:52:42.244Z,10.53
2019-04-27T06:55:12.073Z,13.10
2019-04-27T06:57:41.951Z,11.05
2019-04-27T07:00:12.822Z,8.63
2019-04-27T07:02:42.987Z,15.18
2019-04-27T07:05:12.779Z,10.08
2019-04-27T07:07:42.590Z,14.90
2019-04-27T07:10:12.689Z,12.35
2019-04-27T07:12:42.523Z,17.77
2019-04-27T07:15:15.382Z,15.88
2019-04-27T07:17:43.953Z,11.68
2019-04-27T07:20:13.812Z,11.48
2019-04-27T07:22:43.617Z,23.32
2019-04-27T07:25:13.424Z,9.50
2019-04-27T07:27:43.641Z,6.75
2019-04-27T07:30:13.513Z,10.48
2019-04-27T07:32:43.381Z,8.45
2019-04-27T07:35:13.366Z,8.40
2019-04-27T07:37:43.245Z,11.10
2019-04-27T07:40:13.113Z,8.53
2019-04-27T07:42:45.973Z,9.58
2019-04-27T07:45:19.547Z,7.95
2019-04-27T07:47:51.125Z,6.92
2019-04-27T07:50:20.931Z,8.48
2019-04-27T07:52:51.297Z,8.25
2019-04-27T07:55:21.069Z,10.08
2019-04-27T07:57:50.994Z,8.50
2019-04-27T08:00:20.911Z,7.85
2019-04-27T08:02:51.262Z,5.37
2019-04-27T08:05:21.113Z,6.20
2019-04-27T08:07:50.917Z,6.28
2019-04-27T08:10:20.800Z,6.70
2019-04-27T08:12:50.674Z,5.30
2019-04-27T08:15:20.565Z,7.12
2019-04-27T08:17:50.508Z,4.03
2019-04-27T08:20:21.234Z,4.33
2019-04-27T08:22:51.399Z,4.72
2019-04-27T08:25:22.854Z,6.05
2019-04-27T08:28:12.506Z,3.95
2019-04-27T08:30:46.819Z,5.10
2019-04-27T08:33:16.968Z,5.37
2019-04-27T08:35:46.879Z,4.10
2019-04-27T08:38:16.682Z,4.05
2019-04-27T08:40:46.482Z,5.95
2019-04-27T08:43:16.280Z,5.08
2019-04-27T08:45:46.197Z,2.92
2019-04-27T08:48:16.209Z,6.15
2019-04-27T08:50:46.034Z,3.35
2019-04-27T08:53:15.903Z,3.85
2019-04-27T08:55:45.715Z,4.12
2019-04-27T08:58:15.600Z,3.95
2019-04-27T09:00:45.391Z,3.83
2019-04-27T09:03:15.526Z,3.87
2019-04-27T09:05:45.392Z,3.22
2019-04-27T09:08:19.706Z,2.70
2019-04-27T09:10:54.286Z,3.30
2019-04-27T09:13:29.319Z,3.58
2019-04-27T09:16:00.945Z,2.45
2019-04-27T09:18:32.666Z,7.30
2019-04-27T09:21:04.264Z,3.25
2019-04-27T09:23:34.125Z,4.65
2019-04-27T09:26:03.970Z,3.27
2019-04-27T09:28:33.757Z,2.58
2019-04-27T09:31:03.716Z,2.55
2019-04-27T09:33:33.509Z,2.05
2019-04-27T09:36:03.310Z,4.55
2019-04-27T09:38:33.097Z,2.10
2019-04-27T09:41:02.897Z,2.12
2019-04-27T09:43:32.909Z,3.40
2019-04-27T09:46:03.098Z,5.15
2019-04-27T09:48:32.965Z,4.80
2019-04-27T09:51:02.862Z,3.55
2019-04-27T09:53:32.715Z,2.45
2019-04-27T09:56:02.995Z,5.45
2019-04-27T09:58:32.877Z,3.05
2019-04-27T10:01:02.747Z,2.47
2019-04-27T10:03:32.677Z,3.45
2019-04-27T10:06:02.525Z,3.83
2019-04-27T10:08:32.467Z,3.27
2019-04-27T10:11:02.383Z,1.95
2019-04-27T10:13:33.294Z,2.33
2019-04-27T10:16:03.105Z,3.08
2019-04-27T10:18:34.537Z,2.10
2019-04-27T10:21:06.229Z,3.12
2019-04-27T10:23:38.265Z,2.00
2019-04-27T10:26:07.622Z,2.65
2019-04-27T10:28:37.417Z,1.85
2019-04-27T10:31:07.297Z,2.10
2019-04-27T10:33:37.245Z,3.37
2019-04-27T10:36:07.049Z,2.85
2019-04-27T10:38:36.981Z,2.37
2019-04-27T10:41:07.739Z,1.75
2019-04-27T10:43:37.833Z,2.45
2019-04-27T10:46:07.744Z,1.80
2019-04-27T10:48:37.609Z,2.45
2019-04-27T10:51:07.474Z,2.10
2019-04-27T10:53:38.908Z,3.40
2019-04-27T10:56:08.734Z,1.32
2019-04-27T10:58:38.545Z,1.92
2019-04-27T11:01:09.474Z,2.02
2019-04-27T11:03:57.695Z,2.17
2019-04-27T11:06:29.128Z,0.70
2019-04-27T11:08:59.410Z,1.20
2019-04-27T11:11:32.389Z,0.47
2019-04-27T11:14:02.242Z,1.35
2019-04-27T11:16:32.272Z,0.72
2019-04-27T11:19:02.074Z,1.62
2019-04-27T11:21:31.882Z,1.62
2019-04-27T11:24:01.725Z,1.05
2019-04-27T11:26:31.645Z,1.02
2019-04-27T11:29:01.997Z,0.40
2019-04-27T11:31:31.848Z,0.30
2019-04-27T11:34:01.786Z,0.60
2019-04-27T11:36:33.289Z,0.68
2019-04-27T11:39:04.733Z,0.85
2019-04-27T11:41:36.199Z,0.35
2019-04-27T11:44:06.169Z,0.72
2019-04-27T11:46:36.426Z,0.40
2019-04-27T11:49:06.755Z,3.05
2019-04-27T11:51:36.691Z,0.28
2019-04-27T11:54:07.657Z,1.37
2019-04-27T11:56:37.531Z,0.55
2019-04-27T11:59:07.528Z,4.42
2019-04-27T12:01:37.373Z,0.60
2019-04-27T12:04:07.222Z,0.45
2019-04-27T12:06:37.169Z,0.30
2019-04-27T12:09:07.041Z,0.57
2019-04-27T12:11:38.293Z,0.50
2019-04-27T12:14:08.173Z,0.78
2019-04-27T12:16:37.965Z,1.60
2019-04-27T12:19:09.677Z,0.90
2019-04-27T12:21:39.593Z,1.95
2019-04-27T12:24:09.513Z,1.20
2019-04-27T12:26:41.099Z,2.70
2019-04-27T12:29:12.675Z,0.78
2019-04-27T12:31:48.397Z,0.53
2019-04-27T12:34:16.353Z,0.60
2019-04-27T12:36:46.286Z,0.47
2019-04-27T12:39:16.165Z,0.82
2019-04-27T12:41:46.240Z,0.85
2019-04-27T12:44:17.326Z,0.60
2019-04-27T12:46:47.573Z,1.07
2019-04-27T12:49:17.567Z,0.95
2019-04-27T12:51:47.514Z,1.17
2019-04-27T12:54:18.942Z,0.80
2019-04-27T12:57:06.977Z,4.62
2019-04-27T12:59:56.617Z,0.98
2019-04-27T13:02:34.557Z,1.85
2019-04-27T13:05:06.457Z,4.85
2019-04-27T13:07:39.133Z,0.70
2019-04-27T13:10:08.929Z,1.02
2019-04-27T13:12:39.082Z,3.87
2019-04-27T13:15:09.034Z,1.07
2019-04-27T13:17:38.911Z,0.90
2019-04-27T13:20:08.776Z,0.40
2019-04-27T13:22:38.790Z,1.70
2019-04-27T13:25:08.662Z,0.70
2019-04-27T13:27:38.533Z,0.78
2019-04-27T13:30:08.869Z,1.02
2019-04-27T13:32:39.066Z,0.82
2019-04-27T13:35:09.221Z,1.80
2019-04-27T13:37:40.831Z,1.65
2019-04-27T13:40:12.513Z,2.67
2019-04-27T13:42:59.222Z,1.10
2019-04-27T13:45:33.426Z,2.67
2019-04-27T13:51:16.632Z,1.98
2019-04-27T13:53:46.633Z,2.45
2019-04-27T13:56:17.363Z,5.45
2019-04-27T13:58:47.865Z,2.98
2019-04-27T14:01:17.664Z,1.47
2019-04-27T14:03:47.465Z,4.03
2019-04-27T14:06:17.722Z,2.20
2019-04-27T14:08:47.601Z,2.10
2019-04-27T14:11:18.401Z,1.85
2019-04-27T14:13:48.497Z,3.25
2019-04-27T14:16:18.958Z,2.90
2019-04-27T14:18:48.864Z,2.00
2019-04-27T14:21:18.713Z,1.80
2019-04-27T14:23:48.551Z,1.37
2019-04-27T14:26:18.526Z,1.25
2019-04-27T14:28:49.972Z,1.10
2019-04-27T14:31:21.042Z,5.03
2019-04-27T14:33:52.478Z,1.40
2019-04-27T14:36:22.398Z,1.05
2019-04-27T14:38:53.182Z,1.25
2019-04-27T14:41:23.037Z,3.50
2019-04-27T14:44:05.201Z,1.12
2019-04-27T14:46:24.239Z,1.35
2019-04-27T14:48:54.044Z,1.52
2019-04-27T14:51:23.841Z,2.25
2019-04-27T14:53:53.747Z,1.37
2019-04-27T14:56:24.991Z,1.00
2019-04-27T14:58:55.350Z,1.20
2019-04-27T15:01:25.213Z,1.57
2019-04-27T15:03:55.016Z,1.32
2019-04-27T15:06:25.537Z,1.00
2019-04-27T15:08:56.495Z,1.02
2019-04-27T15:11:26.369Z,2.10
2019-04-27T15:13:59.311Z,1.37
2019-04-27T15:16:28.337Z,3.42
2019-04-27T15:19:17.829Z,1.30
2019-04-27T15:21:56.472Z,1.42
2019-04-27T15:24:18.362Z,2.52
2019-04-27T15:26:50.147Z,3.60
2019-04-27T15:29:25.229Z,1.30
2019-04-27T15:31:55.946Z,1.10
2019-04-27T15:34:29.161Z,2.65
2019-04-27T15:37:10.426Z,3.87
2019-04-27T15:39:41.882Z,7.70
2019-04-27T15:42:19.260Z,4.20
2019-04-27T15:44:50.061Z,1.72
2019-04-27T15:47:21.186Z,1.23
2019-04-27T15:49:54.567Z,1.20
2019-04-27T15:52:25.497Z,1.75
2019-04-27T15:54:53.867Z,1.20
2019-04-27T15:57:23.674Z,1.07
2019-04-27T15:59:53.620Z,1.72
2019-04-27T16:02:23.502Z,1.85
2019-04-27T16:04:53.625Z,1.05
2019-04-27T16:07:24.824Z,0.80
2019-04-27T16:09:59.128Z,1.12
2019-04-27T16:12:28.476Z,3.60
2019-04-27T16:14:58.318Z,3.15
2019-04-27T16:17:31.643Z,9.25
2019-04-27T16:20:00.142Z,4.70
2019-04-27T16:22:29.938Z,9.95
2019-04-27T16:24:59.801Z,5.42
2019-04-27T16:27:34.186Z,10.98
2019-04-27T16:30:09.580Z,6.25
2019-04-27T16:32:34.072Z,2.20
2019-04-27T16:35:04.622Z,2.72
2019-04-27T16:37:42.061Z,9.23
2019-04-27T16:40:11.888Z,7.22
2019-04-27T16:42:45.233Z,3.17
2019-04-27T16:45:13.595Z,3.87
2019-04-27T16:47:43.445Z,3.35
2019-04-27T16:50:13.244Z,7.45
2019-04-27T16:52:43.046Z,7.17
2019-04-27T16:55:12.847Z,3.77
2019-04-27T16:57:42.637Z,1.25
2019-04-27T17:00:15.158Z,4.25
2019-04-27T17:02:45.554Z,6.53
2019-04-27T17:05:15.570Z,3.30
2019-04-27T17:07:45.895Z,10.60
2019-04-27T17:10:16.325Z,5.30
2019-04-27T17:12:51.055Z,2.58
2019-04-27T17:15:28.241Z,10.77
2019-04-27T17:18:15.866Z,6.72
2019-04-27T17:20:48.401Z,13.40
2019-04-27T17:23:31.286Z,8.38
2019-04-27T17:26:05.993Z,11.48
2019-04-27T17:28:41.029Z,11.15
2019-04-27T17:31:12.906Z,13.22
2019-04-27T17:33:48.684Z,11.20
2019-04-27T17:36:17.378Z,10.95
2019-04-27T17:38:50.958Z,9.80
2019-04-27T17:41:18.926Z,14.07
2019-04-27T17:43:48.806Z,14.55
2019-04-27T17:46:19.965Z,7.62
2019-04-27T17:48:50.204Z,10.93
2019-04-27T17:51:20.069Z,11.22
2019-04-27T17:53:50.144Z,16.73
2019-04-27T17:56:20.210Z,10.63
2019-04-27T17:58:52.382Z,9.53
2019-04-27T18:01:26.519Z,11.05
2019-04-27T18:04:00.140Z,10.30
2019-04-27T18:06:27.752Z,8.10
2019-04-27T18:09:00.846Z,9.25
2019-04-27T18:11:28.841Z,6.90
2019-04-27T18:14:00.309Z,6.47
2019-04-27T18:16:34.435Z,8.95
2019-04-27T18:19:11.854Z,8.50
2019-04-27T18:21:43.578Z,8.40
2019-04-27T18:24:15.031Z,8.33
2019-04-27T18:26:50.075Z,9.38
2019-04-27T18:29:18.540Z,10.90
2019-04-27T18:31:53.072Z,10.75
2019-04-27T18:34:21.533Z,11.03
2019-04-27T18:36:51.337Z,6.62
2019-04-27T18:39:21.134Z,6.45
2019-04-27T18:41:54.271Z,8.15
2019-04-27T18:44:23.831Z,8.80
2019-04-27T18:46:58.830Z,9.90
2019-04-27T18:49:34.285Z,9.45
2019-04-27T18:52:22.615Z,6.92
2019-04-27T18:54:52.481Z,14.20
2019-04-27T18:57:22.291Z,7.20
2019-04-27T18:59:52.157Z,8.35
2019-04-27T19:02:22.093Z,4.53
2019-04-27T19:04:51.970Z,5.33
2019-04-27T19:07:21.768Z,5.50
2019-04-27T19:09:51.587Z,10.38
2019-04-27T19:12:22.973Z,9.25
2019-04-27T19:14:52.864Z,9.20
2019-04-27T19:17:22.723Z,8.55
2019-04-27T19:19:54.343Z,7.00
2019-04-27T19:22:24.214Z,6.42
2019-04-27T19:24:54.252Z,6.50
2019-04-27T19:27:31.490Z,5.62
2019-04-27T19:30:03.078Z,6.92
2019-04-27T19:32:34.046Z,6.33
2019-04-27T19:35:05.288Z,5.30
2019-04-27T19:37:35.161Z,8.25
2019-04-27T19:40:08.611Z,8.10
2019-04-27T19:42:38.721Z,6.97
2019-04-27T19:45:08.774Z,8.68
2019-04-27T19:47:38.688Z,6.08
2019-04-27T19:50:10.297Z,6.08
2019-04-27T19:52:41.469Z,5.08
2019-04-27T19:55:11.453Z,3.90
2019-04-27T19:57:42.138Z,6.00
2019-04-27T20:00:29.709Z,6.28
2019-04-27T20:03:02.785Z,5.97
2019-04-27T20:05:33.847Z,6.75
2019-04-27T20:08:06.537Z,6.20
2019-04-27T20:10:37.765Z,6.55
2019-04-27T20:13:07.803Z,6.20
2019-04-27T20:15:37.838Z,4.00
2019-04-27T20:18:07.955Z,2.30
2019-04-27T20:20:39.030Z,4.62
2019-04-27T20:23:09.086Z,3.62
2019-04-27T20:25:39.115Z,2.27
2019-04-27T20:28:08.982Z,5.03
2019-04-27T20:30:38.849Z,3.40
2019-04-27T20:33:08.713Z,5.15
2019-04-27T20:35:38.595Z,2.98
2019-04-27T20:38:08.673Z,1.95
2019-04-27T20:40:38.611Z,4.17
2019-04-27T20:43:08.433Z,2.17
2019-04-27T20:45:38.310Z,6.58
2019-04-27T20:48:08.484Z,4.28
2019-04-27T20:50:38.290Z,7.78
2019-04-27T20:53:12.593Z,3.33
2019-04-27T20:55:42.569Z,2.30
2019-04-27T20:58:12.683Z,2.02
2019-04-27T21:00:42.993Z,2.70
2019-04-27T21:03:20.478Z,5.05
2019-04-27T21:05:54.890Z,5.97
2019-04-27T21:08:31.054Z,3.90
2019-04-27T21:11:01.633Z,2.60
2019-04-27T21:13:31.768Z,3.58
2019-04-27T21:16:02.268Z,2.77
2019-04-27T21:18:32.270Z,2.95
2019-04-27T21:21:02.098Z,1.98
2019-04-27T21:23:31.970Z,4.50
2019-04-27T21:26:02.274Z,2.72
2019-04-27T21:28:32.182Z,3.17
2019-04-27T21:31:02.008Z,3.02
2019-04-27T21:33:32.069Z,2.92
2019-04-27T21:36:01.875Z,2.40
2019-04-27T21:38:31.745Z,2.58
2019-04-27T21:41:01.623Z,2.25
2019-04-27T21:43:32.743Z,4.87
2019-04-27T21:46:02.820Z,2.85
2019-04-27T21:48:32.714Z,3.37
2019-04-27T21:51:02.586Z,4.60
2019-04-27T21:53:34.053Z,3.40
2019-04-27T21:56:05.577Z,1.72
2019-04-27T21:58:35.382Z,2.22
2019-04-27T22:01:13.243Z,2.62
2019-04-27T22:03:43.462Z,2.85
2019-04-27T22:06:13.401Z,1.77
2019-04-27T22:08:43.221Z,4.17
2019-04-27T22:11:13.022Z,2.27
2019-04-27T22:13:42.821Z,3.02
2019-04-27T22:16:13.119Z,3.10
2019-04-27T22:18:43.049Z,3.95
2019-04-27T22:21:12.865Z,3.62
2019-04-27T22:23:44.277Z,4.60
2019-04-27T22:26:14.105Z,2.55
2019-04-27T22:28:49.185Z,2.52
2019-04-27T22:31:15.394Z,1.80
2019-04-27T22:33:45.205Z,1.52
2019-04-27T22:36:15.975Z,1.60
2019-04-27T22:38:45.854Z,1.35
2019-04-27T22:41:17.368Z,2.08
2019-04-27T22:44:05.087Z,1.47
2019-04-27T22:46:45.353Z,2.77
2019-04-27T22:49:15.229Z,2.15
2019-04-27T22:51:45.098Z,2.17
2019-04-27T22:54:15.002Z,1.40
2019-04-27T22:56:46.526Z,1.62
2019-04-27T22:59:17.969Z,2.67
2019-04-27T23:01:52.382Z,4.33
2019-04-27T23:04:32.382Z,1.65
2019-04-27T23:07:02.755Z,2.05
2019-04-27T23:09:32.801Z,2.10
2019-04-27T23:12:02.755Z,1.80
2019-04-27T23:14:32.633Z,1.05
2019-04-27T23:17:13.024Z,2.00
2019-04-27T23:19:42.872Z,1.40
2019-04-27T23:22:12.946Z,1.77
2019-04-27T23:24:43.045Z,1.85
2019-04-27T23:27:15.140Z,2.25
2019-04-27T23:29:44.617Z,2.60
2019-04-27T23:32:18.942Z,2.77
2019-04-27T23:34:48.901Z,1.55
2019-04-27T23:37:18.707Z,1.55
2019-04-27T23:39:48.601Z,3.62
2019-04-27T23:42:18.714Z,6.87
2019-04-27T23:44:48.604Z,1.15
2019-04-27T23:47:18.442Z,3.50
2019-04-27T23:49:48.307Z,1.17
2019-04-27T23:52:22.837Z,2.45
2019-04-27T23:54:52.981Z,2.17
2019-04-27T23:57:23.077Z,3.17
2019-04-27T23:59:52.870Z,4.62
